createdAt,value
2022-07-30T00:01:35.719Z,72.20
2022-07-30T00:04:04.291Z,72.10
2022-07-30T00:06:32.583Z,72.10
2022-07-30T00:09:00.168Z,72.00
2022-07-30T00:11:28.198Z,72.30
2022-07-30T00:13:56.438Z,72.60
2022-07-30T00:16:24.050Z,72.40
2022-07-30T00:18:51.697Z,72.60
2022-07-30T00:21:32.098Z,72.50
2022-07-30T00:24:04.998Z,72.70
2022-07-30T00:26:32.757Z,72.70
2022-07-30T00:29:00.428Z,72.90
2022-07-30T00:31:29.691Z,72.90
2022-07-30T00:33:57.170Z,72.90
2022-07-30T00:36:24.729Z,72.90
2022-07-30T00:38:52.636Z,73.20
2022-07-30T00:41:20.377Z,73.30
2022-07-30T00:43:48.270Z,73.20
2022-07-30T00:46:15.833Z,73.60
2022-07-30T00:48:43.833Z,73.30
2022-07-30T00:51:11.837Z,73.30
2022-07-30T00:53:39.589Z,73.50
2022-07-30T00:56:07.584Z,73.40
2022-07-30T00:58:36.079Z,73.60
2022-07-30T01:01:03.798Z,74.00
2022-07-30T01:03:31.248Z,73.50
2022-07-30T01:05:58.820Z,73.90
2022-07-30T01:08:26.214Z,73.70
2022-07-30T01:10:53.949Z,73.80
2022-07-30T01:13:21.347Z,73.90
2022-07-30T01:15:49.176Z,73.60
2022-07-30T01:18:17.755Z,74.00
2022-07-30T01:21:07.540Z,73.90
2022-07-30T01:23:42.744Z,73.90
2022-07-30T01:26:19.663Z,74.00
2022-07-30T01:28:51.959Z,74.00
2022-07-30T01:31:20.962Z,74.10
2022-07-30T01:33:50.634Z,74.30
2022-07-30T01:36:22.816Z,75.30
2022-07-30T01:38:52.202Z,74.60
2022-07-30T01:41:20.870Z,74.50
2022-07-30T01:43:48.264Z,74.50
2022-07-30T01:46:17.741Z,75.70
2022-07-30T01:48:49.201Z,74.70
2022-07-30T01:51:18.230Z,74.10
2022-07-30T01:53:50.491Z,74.70
2022-07-30T01:56:24.657Z,74.80
2022-07-30T01:58:55.579Z,75.10
2022-07-30T02:01:26.013Z,75.20
2022-07-30T02:04:02.004Z,75.10
2022-07-30T02:06:40.128Z,75.00
2022-07-30T02:09:11.062Z,75.20
2022-07-30T02:12:05.544Z,76.10
2022-07-30T02:14:54.268Z,75.20
2022-07-30T02:17:30.272Z,75.20
2022-07-30T02:20:06.699Z,75.30
2022-07-30T02:22:42.569Z,75.20
2022-07-30T02:25:13.528Z,75.40
2022-07-30T02:27:45.093Z,75.40
2022-07-30T02:30:13.176Z,75.50
2022-07-30T02:32:43.799Z,75.80
2022-07-30T02:35:21.124Z,75.70
2022-07-30T02:37:51.110Z,77.10
2022-07-30T02:40:21.482Z,76.30
2022-07-30T02:42:52.070Z,76.20
2022-07-30T02:45:24.692Z,76.70
2022-07-30T02:47:57.182Z,76.90
2022-07-30T02:50:26.062Z,76.40
2022-07-30T02:52:56.228Z,76.30
2022-07-30T02:55:26.592Z,76.30
2022-07-30T02:57:55.247Z,76.40
2022-07-30T03:00:25.086Z,76.40
2022-07-30T03:02:56.735Z,76.50
2022-07-30T03:05:26.676Z,76.50
2022-07-30T03:07:57.722Z,76.60
2022-07-30T03:10:27.244Z,76.60
2022-07-30T03:12:56.257Z,76.70
2022-07-30T03:15:24.093Z,76.80
2022-07-30T03:17:55.663Z,77.00
2022-07-30T03:20:29.208Z,76.90
2022-07-30T03:23:00.823Z,77.50
2022-07-30T03:25:32.871Z,77.00
2022-07-30T03:28:02.731Z,77.90
2022-07-30T03:30:31.055Z,77.50
2022-07-30T03:32:59.816Z,77.20
2022-07-30T03:35:31.255Z,77.40
2022-07-30T03:38:00.568Z,78.80
2022-07-30T03:40:32.115Z,81.80
2022-07-30T03:43:02.387Z,79.20
2022-07-30T03:45:30.970Z,77.30
2022-07-30T03:48:08.322Z,78.30
2022-07-30T03:50:38.884Z,78.50
2022-07-30T03:53:08.708Z,78.60
2022-07-30T03:55:51.926Z,78.80
2022-07-30T03:58:44.874Z,77.80
2022-07-30T04:01:12.640Z,80.90
2022-07-30T04:03:40.313Z,81.50
2022-07-30T04:06:08.033Z,80.20
2022-07-30T04:08:37.040Z,82.70
2022-07-30T04:11:04.642Z,80.20
2022-07-30T04:14:04.244Z,80.70
2022-07-30T04:16:41.037Z,78.50
2022-07-30T04:19:25.613Z,80.40
2022-07-30T04:21:56.987Z,78.90
2022-07-30T04:24:26.911Z,79.60
2022-07-30T04:27:03.835Z,79.20
2022-07-30T04:29:32.154Z,79.50
2022-07-30T04:32:03.097Z,81.40
2022-07-30T04:34:54.227Z,83.00
2022-07-30T04:37:42.621Z,79.70
2022-07-30T04:40:10.416Z,80.90
2022-07-30T04:42:37.876Z,79.70
2022-07-30T04:45:09.631Z,79.30
2022-07-30T04:47:56.154Z,79.10
2022-07-30T04:50:45.794Z,79.10
2022-07-30T04:53:18.338Z,79.10
2022-07-30T04:55:52.535Z,79.00
2022-07-30T04:58:23.583Z,79.50
2022-07-30T05:00:53.233Z,79.50
2022-07-30T05:03:26.039Z,79.30
2022-07-30T05:05:57.627Z,79.20
2022-07-30T05:08:28.165Z,79.50
2022-07-30T05:10:56.705Z,79.30
2022-07-30T05:13:34.088Z,79.80
2022-07-30T05:16:04.469Z,80.00
2022-07-30T05:18:32.006Z,79.70
2022-07-30T05:20:59.599Z,79.90
2022-07-30T05:23:31.027Z,79.90
2022-07-30T05:26:11.720Z,79.60
2022-07-30T05:28:52.110Z,79.20
2022-07-30T05:31:27.026Z,78.90
2022-07-30T05:34:03.393Z,79.20
2022-07-30T05:36:40.746Z,79.50
2022-07-30T05:39:08.701Z,79.30
2022-07-30T05:41:55.113Z,79.10
2022-07-30T05:44:41.912Z,79.00
2022-07-30T05:47:09.414Z,78.50
2022-07-30T05:49:38.855Z,78.80
2022-07-30T05:52:09.873Z,78.80
2022-07-30T05:54:37.415Z,78.50
2022-07-30T05:57:37.302Z,78.70
2022-07-30T06:00:07.827Z,77.40
2022-07-30T06:02:52.707Z,77.00
2022-07-30T06:05:45.616Z,77.50
2022-07-30T06:08:13.414Z,76.90
2022-07-30T06:10:40.895Z,76.70
2022-07-30T06:13:10.184Z,76.10
2022-07-30T06:15:37.742Z,76.20
2022-07-30T06:18:05.384Z,77.20
2022-07-30T06:20:46.898Z,76.90
2022-07-30T06:23:32.642Z,75.60
2022-07-30T06:26:22.948Z,74.90
2022-07-30T06:28:50.847Z,75.50
2022-07-30T06:31:24.615Z,74.40
2022-07-30T06:33:52.819Z,74.50
2022-07-30T06:36:20.582Z,74.20
2022-07-30T06:39:14.260Z,74.10
2022-07-30T06:42:21.579Z,73.10
2022-07-30T06:45:08.439Z,73.10
2022-07-30T06:48:08.164Z,72.60
2022-07-30T06:50:37.287Z,72.30
2022-07-30T06:53:17.180Z,71.70
2022-07-30T06:56:03.292Z,71.50
2022-07-30T06:58:44.563Z,71.90
2022-07-30T07:01:31.010Z,71.70
2022-07-30T07:03:58.864Z,71.50
2022-07-30T07:06:26.635Z,72.00
2022-07-30T07:08:54.085Z,71.70
2022-07-30T07:11:30.070Z,71.00
2022-07-30T07:14:02.628Z,71.60
2022-07-30T07:16:35.366Z,70.90
2022-07-30T07:19:59.794Z,71.50
2022-07-30T07:22:09.637Z,69.80
2022-07-30T07:24:37.797Z,69.80
2022-07-30T07:27:15.666Z,68.70
2022-07-30T07:30:05.685Z,67.30
2022-07-30T07:32:34.319Z,68.50
2022-07-30T07:35:02.669Z,67.70
2022-07-30T07:37:30.583Z,67.50
2022-07-30T07:39:58.896Z,68.00
2022-07-30T07:42:27.151Z,67.30
2022-07-30T07:44:55.065Z,66.30
2022-07-30T07:47:22.778Z,66.00
2022-07-30T07:50:05.256Z,65.60
2022-07-30T07:52:32.685Z,65.10
2022-07-30T07:55:00.231Z,64.80
2022-07-30T07:57:30.174Z,64.30
2022-07-30T07:59:59.409Z,64.00
2022-07-30T08:02:28.155Z,64.00
2022-07-30T08:05:00.718Z,64.00
2022-07-30T08:07:46.670Z,64.10
2022-07-30T08:10:32.485Z,63.90
2022-07-30T08:13:04.015Z,63.30
2022-07-30T08:15:50.350Z,62.70
2022-07-30T08:18:47.136Z,62.90
2022-07-30T08:21:28.055Z,62.70
2022-07-30T08:23:55.605Z,62.60
2022-07-30T08:26:23.033Z,62.20
2022-07-30T08:28:50.533Z,62.40
2022-07-30T08:31:22.482Z,61.90
2022-07-30T08:33:50.023Z,61.20
2022-07-30T08:36:19.662Z,60.70
2022-07-30T08:38:49.084Z,60.30
2022-07-30T08:41:21.072Z,60.00
2022-07-30T08:43:50.793Z,59.30
2022-07-30T08:46:24.586Z,58.50
2022-07-30T08:49:05.405Z,58.90
2022-07-30T08:51:37.539Z,58.70
2022-07-30T08:54:28.410Z,58.00
2022-07-30T08:56:58.725Z,57.80
2022-07-30T08:59:59.907Z,57.20
2022-07-30T09:02:14.329Z,58.00
2022-07-30T09:04:57.740Z,57.20
2022-07-30T09:07:25.927Z,57.00
2022-07-30T09:09:53.353Z,56.60
2022-07-30T09:12:34.049Z,56.40
2022-07-30T09:15:07.557Z,55.50
2022-07-30T09:18:05.468Z,55.50
2022-07-30T09:20:36.957Z,56.20
2022-07-30T09:23:08.370Z,56.00
2022-07-30T09:25:52.043Z,55.80
2022-07-30T09:28:37.798Z,55.00
2022-07-30T09:34:32.013Z,55.30
2022-07-30T09:37:18.390Z,54.50
2022-07-30T09:40:18.356Z,54.70
2022-07-30T09:43:10.072Z,54.20
2022-07-30T09:45:56.889Z,53.60
2022-07-30T09:48:28.092Z,53.20
2022-07-30T09:50:57.355Z,54.00
2022-07-30T09:53:26.271Z,53.30
2022-07-30T09:55:53.930Z,52.90
2022-07-30T09:58:27.183Z,53.10
2022-07-30T10:00:59.408Z,53.30
2022-07-30T10:03:48.793Z,52.30
2022-07-30T10:06:56.260Z,52.50
2022-07-30T10:09:37.106Z,51.30
2022-07-30T10:12:10.704Z,50.70
2022-07-30T10:14:46.612Z,50.40
2022-07-30T10:17:25.164Z,51.20
2022-07-30T10:20:13.479Z,51.30
2022-07-30T10:23:00.111Z,49.90
2022-07-30T10:25:49.091Z,49.30
2022-07-30T10:28:41.734Z,50.80
2022-07-30T10:31:48.664Z,48.60
2022-07-30T10:33:57.514Z,48.60
2022-07-30T10:36:26.711Z,48.10
2022-07-30T10:38:56.263Z,47.70
2022-07-30T10:41:54.706Z,47.40
2022-07-30T10:44:54.454Z,47.50
2022-07-30T10:47:29.826Z,47.50
2022-07-30T10:50:14.013Z,47.90
2022-07-30T10:52:50.352Z,48.50
2022-07-30T10:55:37.577Z,46.80
2022-07-30T10:58:15.734Z,46.90
2022-07-30T11:00:51.673Z,46.50
2022-07-30T11:03:40.703Z,46.50
2022-07-30T11:06:24.317Z,46.70
2022-07-30T11:08:57.188Z,46.10
2022-07-30T11:11:59.275Z,46.00
2022-07-30T11:14:13.147Z,45.50
2022-07-30T11:16:40.566Z,45.40
2022-07-30T11:19:55.905Z,45.50
2022-07-30T11:22:38.941Z,44.70
2022-07-30T11:25:12.733Z,44.70
2022-07-30T11:27:45.721Z,44.30
2022-07-30T11:30:17.153Z,44.40
2022-07-30T11:33:04.049Z,43.30
2022-07-30T11:35:35.640Z,42.70
2022-07-30T11:38:18.904Z,42.90
2022-07-30T11:40:46.742Z,42.80
2022-07-30T11:43:36.138Z,43.50
2022-07-30T11:46:15.711Z,43.70
2022-07-30T11:48:55.809Z,42.90
2022-07-30T11:51:24.115Z,43.20
2022-07-30T11:54:06.023Z,43.10
2022-07-30T11:56:34.419Z,42.20
2022-07-30T11:59:06.675Z,42.70
2022-07-30T12:01:35.976Z,42.80
2022-07-30T12:04:05.659Z,42.60
2022-07-30T12:06:33.613Z,42.90
2022-07-30T12:09:01.122Z,42.90
2022-07-30T12:11:35.691Z,43.20
2022-07-30T12:14:04.716Z,43.20
2022-07-30T12:16:32.779Z,43.40
2022-07-30T12:19:06.834Z,42.90
2022-07-30T12:21:37.378Z,42.70
2022-07-30T12:24:12.626Z,42.50
2022-07-30T12:26:40.358Z,42.00
2022-07-30T12:29:14.095Z,41.70
2022-07-30T12:31:42.460Z,41.70
2022-07-30T12:34:25.783Z,41.90
2022-07-30T12:36:54.135Z,41.70
2022-07-30T12:39:28.449Z,41.70
2022-07-30T12:41:59.090Z,41.70
2022-07-30T12:44:36.964Z,41.90
2022-07-30T12:47:27.352Z,41.40
2022-07-30T12:49:56.870Z,41.20
2022-07-30T12:52:27.766Z,41.40
2022-07-30T12:55:14.175Z,40.20
2022-07-30T12:58:01.820Z,40.50
2022-07-30T13:00:33.459Z,40.70
2022-07-30T13:03:00.925Z,42.00
2022-07-30T13:05:49.839Z,40.90
2022-07-30T13:08:18.021Z,40.40
2022-07-30T13:11:00.185Z,41.90
2022-07-30T13:13:29.255Z,40.00
2022-07-30T13:16:05.508Z,39.30
2022-07-30T13:18:36.063Z,40.10
2022-07-30T13:21:07.760Z,39.80
2022-07-30T13:23:38.883Z,38.80
2022-07-30T13:26:15.829Z,37.90
2022-07-30T13:28:48.642Z,38.80
2022-07-30T13:31:22.333Z,39.00
2022-07-30T13:36:36.164Z,40.90
2022-07-30T13:39:14.177Z,42.20
2022-07-30T13:41:42.150Z,42.00
2022-07-30T13:44:29.230Z,40.80
2022-07-30T13:47:10.650Z,40.80
2022-07-30T13:49:46.349Z,40.70
2022-07-30T13:52:23.273Z,40.30
2022-07-30T13:54:55.654Z,41.30
2022-07-30T13:57:33.461Z,39.70
2022-07-30T14:00:02.032Z,41.60
2022-07-30T14:02:32.242Z,40.80
2022-07-30T14:05:00.255Z,41.30
2022-07-30T14:07:37.761Z,40.40
2022-07-30T14:10:22.986Z,40.40
2022-07-30T14:13:20.781Z,43.30
2022-07-30T14:15:57.993Z,40.10
2022-07-30T14:18:29.125Z,42.00
2022-07-30T14:21:02.738Z,41.90
2022-07-30T14:23:41.790Z,41.80
2022-07-30T14:26:21.210Z,42.00
2022-07-30T14:29:47.906Z,42.00
2022-07-30T14:32:05.908Z,41.60
2022-07-30T14:34:36.308Z,44.50
2022-07-30T14:38:04.198Z,43.40
2022-07-30T14:40:34.804Z,42.60
2022-07-30T14:43:02.363Z,41.70
2022-07-30T14:45:30.052Z,42.00
2022-07-30T14:47:57.659Z,41.70
2022-07-30T14:50:27.907Z,41.90
2022-07-30T14:53:01.056Z,41.90
2022-07-30T14:55:32.332Z,43.30
2022-07-30T14:58:09.945Z,43.10
2022-07-30T15:00:48.859Z,43.50
2022-07-30T15:03:24.884Z,41.50
2022-07-30T15:05:53.926Z,42.70
2022-07-30T15:08:30.442Z,41.60
2022-07-30T15:11:06.152Z,40.60
2022-07-30T15:13:38.531Z,42.90
2022-07-30T15:16:08.211Z,40.50
2022-07-30T15:18:40.173Z,42.60
2022-07-30T15:21:14.280Z,44.30
2022-07-30T15:23:51.312Z,42.80
2022-07-30T15:29:35.384Z,43.90
2022-07-30T15:32:19.917Z,44.60
2022-07-30T15:35:02.450Z,42.80
2022-07-30T15:37:35.106Z,43.30
2022-07-30T15:40:07.603Z,41.80
2022-07-30T15:42:59.084Z,43.20
2022-07-30T15:45:38.067Z,42.90
2022-07-30T15:48:24.994Z,44.30
2022-07-30T15:51:02.187Z,42.30
2022-07-30T15:53:32.309Z,42.90
2022-07-30T15:56:00.436Z,42.60
2022-07-30T15:58:28.262Z,43.60
2022-07-30T16:00:56.082Z,44.60
2022-07-30T16:03:23.903Z,43.20
2022-07-30T16:05:52.951Z,43.90
2022-07-30T16:08:25.898Z,45.10
2022-07-30T16:10:58.622Z,44.50
2022-07-30T16:13:33.128Z,47.90
2022-07-30T16:16:01.014Z,45.10
2022-07-30T16:18:31.359Z,46.50
2022-07-30T16:21:01.403Z,47.70
2022-07-30T16:23:36.971Z,45.70
2022-07-30T16:26:44.634Z,45.70
2022-07-30T16:29:14.081Z,48.00
2022-07-30T16:31:41.975Z,45.90
2022-07-30T16:34:09.435Z,46.20
2022-07-30T16:36:37.024Z,45.40
2022-07-30T16:39:05.307Z,44.40
2022-07-30T16:41:32.873Z,44.20
2022-07-30T16:44:14.949Z,44.10
2022-07-30T16:46:42.601Z,47.20
2022-07-30T16:49:10.176Z,46.00
2022-07-30T16:51:37.682Z,45.00
2022-07-30T16:54:07.751Z,45.30
2022-07-30T16:56:35.331Z,44.80
2022-07-30T16:59:02.868Z,46.40
2022-07-30T17:01:31.220Z,46.90
2022-07-30T17:04:00.488Z,46.60
2022-07-30T17:06:27.996Z,46.10
2022-07-30T17:08:59.860Z,46.70
2022-07-30T17:11:47.293Z,46.40
2022-07-30T17:14:16.809Z,46.60
2022-07-30T17:16:44.489Z,46.70
2022-07-30T17:19:12.131Z,50.00
2022-07-30T17:21:42.161Z,51.10
2022-07-30T17:24:13.694Z,49.90
2022-07-30T17:26:48.015Z,49.20
2022-07-30T17:29:16.349Z,49.20
2022-07-30T17:31:44.999Z,49.80
2022-07-30T17:34:14.383Z,48.90
2022-07-30T17:41:55.523Z,49.40
2022-07-30T17:43:19.374Z,50.40
2022-07-30T17:53:30.877Z,51.10
2022-07-30T18:01:00.591Z,49.80
2022-07-30T18:03:28.712Z,53.30
2022-07-30T18:05:58.621Z,49.40
2022-07-30T18:08:29.214Z,51.30
2022-07-30T18:10:57.145Z,51.00
2022-07-30T18:13:27.024Z,51.30
2022-07-30T18:15:54.963Z,49.70
2022-07-30T18:18:22.394Z,51.30
2022-07-30T18:20:50.538Z,50.80
2022-07-30T18:23:20.492Z,50.40
2022-07-30T18:25:54.404Z,53.40
2022-07-30T18:28:42.242Z,51.00
2022-07-30T18:31:16.199Z,50.40
2022-07-30T18:33:50.519Z,51.80
2022-07-30T18:36:20.873Z,53.80
2022-07-30T18:38:49.879Z,52.80
2022-07-30T18:41:24.440Z,52.40
2022-07-30T18:43:54.574Z,53.90
2022-07-30T18:46:22.231Z,53.80
2022-07-30T18:49:10.858Z,53.80
2022-07-30T18:51:48.357Z,52.00
2022-07-30T18:54:35.177Z,53.70
2022-07-30T18:57:02.845Z,52.20
2022-07-30T18:59:33.146Z,51.20
2022-07-30T19:02:02.054Z,53.50
2022-07-30T19:04:39.030Z,52.30
2022-07-30T19:07:09.372Z,54.00
2022-07-30T19:09:46.380Z,53.60
2022-07-30T19:12:18.965Z,55.30
2022-07-30T19:14:49.074Z,54.00
2022-07-30T19:17:19.714Z,53.50
2022-07-30T19:19:52.848Z,55.40
2022-07-30T19:22:29.989Z,54.30
2022-07-30T19:25:13.435Z,54.30
2022-07-30T19:27:49.014Z,52.10
2022-07-30T19:30:23.917Z,54.30
2022-07-30T19:33:24.286Z,54.20
2022-07-30T19:35:54.469Z,56.10
2022-07-30T19:38:24.001Z,58.40
2022-07-30T19:40:59.413Z,55.20
2022-07-30T19:44:14.699Z,58.00
2022-07-30T19:47:16.767Z,54.80
2022-07-30T19:50:55.352Z,57.20
2022-07-30T19:53:16.107Z,55.60
2022-07-30T19:55:43.833Z,56.30
2022-07-30T19:58:17.585Z,57.50
2022-07-30T20:00:52.016Z,58.80
2022-07-30T20:03:31.886Z,56.70
2022-07-30T20:06:14.695Z,57.80
2022-07-30T20:08:52.988Z,54.60
2022-07-30T20:11:35.913Z,56.30
2022-07-30T20:14:08.946Z,59.80
2022-07-30T20:16:36.618Z,56.80
2022-07-30T20:20:02.014Z,58.30
2022-07-30T20:22:53.770Z,56.70
2022-07-30T20:25:55.788Z,59.90
2022-07-30T20:28:35.706Z,60.10
2022-07-30T20:31:09.027Z,61.00
2022-07-30T20:34:27.668Z,58.10
2022-07-30T20:37:13.835Z,56.70
2022-07-30T20:39:48.057Z,57.10
2022-07-30T20:42:16.933Z,59.40
2022-07-30T20:44:50.703Z,57.60
2022-07-30T20:47:38.280Z,57.60
2022-07-30T20:50:10.328Z,58.50
2022-07-30T20:52:40.428Z,57.50
2022-07-30T20:55:15.179Z,57.00
2022-07-30T20:58:02.865Z,60.10
2022-07-30T21:00:33.503Z,57.50
2022-07-30T21:03:03.198Z,57.60
2022-07-30T21:05:31.359Z,60.30
2022-07-30T21:07:59.018Z,58.20
2022-07-30T21:10:26.567Z,60.40
2022-07-30T21:16:01.950Z,59.50
2022-07-30T21:18:29.725Z,61.00
2022-07-30T21:20:58.492Z,59.60
2022-07-30T21:23:28.452Z,59.60
2022-07-30T21:26:00.669Z,60.20
2022-07-30T21:28:35.767Z,59.60
2022-07-30T21:31:06.952Z,58.80
2022-07-30T21:33:39.081Z,59.30
2022-07-30T21:36:10.364Z,61.50
2022-07-30T21:38:42.357Z,59.30
2022-07-30T21:41:14.204Z,59.10
2022-07-30T21:43:44.309Z,60.50
2022-07-30T21:46:12.970Z,59.10
2022-07-30T21:48:42.484Z,58.00
2022-07-30T21:51:13.575Z,58.50
2022-07-30T21:53:44.810Z,58.00
2022-07-30T21:56:13.570Z,58.80
2022-07-30T21:58:41.894Z,58.20
2022-07-30T22:01:18.116Z,58.70
2022-07-30T22:04:03.063Z,58.40
2022-07-30T22:06:41.716Z,58.50
2022-07-30T22:09:19.264Z,58.70
2022-07-30T22:12:01.466Z,58.80
2022-07-30T22:14:29.806Z,59.20
2022-07-30T22:16:58.901Z,59.60
2022-07-30T22:19:26.412Z,60.10
2022-07-30T22:21:54.953Z,60.80
2022-07-30T22:24:28.838Z,60.90
2022-07-30T22:27:01.215Z,59.50
2022-07-30T22:29:33.898Z,59.60
2022-07-30T22:32:04.129Z,60.00
2022-07-30T22:34:32.685Z,59.30
2022-07-30T22:37:00.121Z,59.50
2022-07-30T22:42:16.124Z,59.50
2022-07-30T22:44:45.923Z,59.80
2022-07-30T22:47:21.394Z,59.90
2022-07-30T22:50:04.733Z,59.80
2022-07-30T22:52:37.824Z,59.90
2022-07-30T22:55:10.414Z,60.30
2022-07-30T22:57:42.975Z,60.80
2022-07-30T23:00:27.915Z,61.00
2022-07-30T23:02:56.830Z,61.20
2022-07-30T23:05:24.974Z,60.90
2022-07-30T23:07:52.540Z,61.20
2022-07-30T23:10:21.147Z,62.80
2022-07-30T23:12:26.913Z,60.10
2022-07-30T23:12:32.449Z,59.70
2022-07-30T23:12:51.899Z,62.10
2022-07-30T23:15:20.183Z,61.60
2022-07-30T23:17:48.111Z,61.30
2022-07-30T23:20:18.326Z,60.90
2022-07-30T23:22:46.085Z,60.80
2022-07-30T23:25:14.027Z,61.70
2022-07-30T23:27:41.963Z,62.10
2022-07-30T23:30:12.281Z,63.10
2022-07-30T23:32:40.169Z,60.00
2022-07-30T23:35:09.435Z,61.30
2022-07-30T23:37:48.230Z,59.80
2022-07-30T23:40:19.788Z,59.70
2022-07-30T23:42:50.126Z,60.70
2022-07-30T23:45:18.275Z,61.90
2022-07-30T23:47:56.596Z,60.50
2022-07-30T23:50:32.320Z,60.80
2022-07-30T23:53:01.097Z,59.20
2022-07-30T23:55:29.794Z,59.50
2022-07-30T23:58:00.772Z,59.20
